createdAt,value
2022-10-27T00:00:45.394Z,13.60
2022-10-27T00:01:45.449Z,16.30
2022-10-27T00:02:45.415Z,15.60
2022-10-27T00:03:45.371Z,15.40
2022-10-27T00:04:45.368Z,16.00
2022-10-27T00:05:45.359Z,16.50
2022-10-27T00:06:45.355Z,13.30
2022-10-27T00:07:45.341Z,18.90
2022-10-27T00:08:45.340Z,19.30
2022-10-27T00:09:45.325Z,16.10
2022-10-27T00:10:45.407Z,19.80
2022-10-27T00:11:45.377Z,16.00
2022-10-27T00:12:45.305Z,17.50
2022-10-27T00:13:45.303Z,19.30
2022-10-27T00:14:45.291Z,18.10
2022-10-27T00:15:45.287Z,17.70
2022-10-27T00:16:45.271Z,15.70
2022-10-27T00:17:45.267Z,18.70
2022-10-27T00:18:45.260Z,15.00
2022-10-27T00:19:45.253Z,18.10
2022-10-27T00:20:45.248Z,24.30
2022-10-27T00:21:45.261Z,18.00
2022-10-27T00:22:45.233Z,20.30
2022-10-27T00:23:45.220Z,20.60
2022-10-27T00:24:45.215Z,23.20
2022-10-27T00:25:45.207Z,21.80
2022-10-27T00:26:45.203Z,13.90
2022-10-27T00:27:45.194Z,25.70
2022-10-27T00:28:45.199Z,17.60
2022-10-27T00:29:45.180Z,17.50
2022-10-27T00:30:45.167Z,18.50
2022-10-27T00:31:45.165Z,17.20
2022-10-27T00:32:45.156Z,17.90
2022-10-27T00:33:45.149Z,17.80
2022-10-27T00:34:45.142Z,23.40
2022-10-27T00:35:45.133Z,19.70
2022-10-27T00:36:45.127Z,18.80
2022-10-27T00:37:45.116Z,17.60
2022-10-27T00:38:45.111Z,24.30
2022-10-27T00:39:45.103Z,20.70
2022-10-27T00:40:45.096Z,25.50
2022-10-27T00:41:45.089Z,22.10
2022-10-27T00:42:45.081Z,21.50
2022-10-27T00:43:45.072Z,20.10
2022-10-27T00:44:45.060Z,18.20
2022-10-27T00:45:45.060Z,17.70
2022-10-27T00:46:45.055Z,16.10
2022-10-27T00:47:45.043Z,16.90
2022-10-27T00:48:45.035Z,19.50
2022-10-27T00:49:45.029Z,23.30
2022-10-27T00:50:45.036Z,14.60
2022-10-27T00:51:45.009Z,19.90
2022-10-27T00:52:45.006Z,17.90
2022-10-27T00:53:44.996Z,24.50
2022-10-27T00:54:45.012Z,20.10
2022-10-27T00:55:44.984Z,18.80
2022-10-27T00:56:44.975Z,21.10
2022-10-27T00:57:44.971Z,18.90
2022-10-27T00:58:44.963Z,19.10
2022-10-27T00:59:44.954Z,17.70
2022-10-27T01:00:44.997Z,17.60
2022-10-27T01:01:45.065Z,19.80
2022-10-27T01:02:44.935Z,17.50
2022-10-27T01:03:44.923Z,17.80
2022-10-27T01:04:44.915Z,19.60
2022-10-27T01:05:44.905Z,21.50
2022-10-27T01:06:44.902Z,18.70
2022-10-27T01:07:44.895Z,18.30
2022-10-27T01:08:44.895Z,19.90
2022-10-27T01:09:44.881Z,22.50
2022-10-27T01:10:44.872Z,22.00
2022-10-27T01:11:44.863Z,21.00
2022-10-27T01:12:44.857Z,23.90
2022-10-27T01:13:44.848Z,21.10
2022-10-27T01:14:44.843Z,17.70
2022-10-27T01:15:44.846Z,20.30
2022-10-27T01:16:44.828Z,22.70
2022-10-27T01:17:44.821Z,22.20
2022-10-27T01:18:44.810Z,21.00
2022-10-27T01:19:44.804Z,20.40
2022-10-27T01:20:44.797Z,18.30
2022-10-27T01:21:44.795Z,19.80
2022-10-27T01:22:44.792Z,18.50
2022-10-27T01:23:44.774Z,22.50
2022-10-27T01:24:44.767Z,16.40
2022-10-27T01:25:44.760Z,17.50
2022-10-27T01:26:44.750Z,16.10
2022-10-27T01:27:44.743Z,21.80
2022-10-27T01:28:44.741Z,21.40
2022-10-27T01:29:44.755Z,21.40
2022-10-27T01:30:44.721Z,19.30
2022-10-27T01:31:46.830Z,19.40
2022-10-27T01:32:44.702Z,21.00
2022-10-27T01:33:44.698Z,17.70
2022-10-27T01:34:44.689Z,22.50
2022-10-27T01:35:44.683Z,19.70
2022-10-27T01:36:44.677Z,19.30
2022-10-27T01:37:44.668Z,21.70
2022-10-27T01:38:44.674Z,20.50
2022-10-27T01:39:44.654Z,21.70
2022-10-27T01:40:44.645Z,24.10
2022-10-27T01:41:44.639Z,24.30
2022-10-27T01:42:44.631Z,23.10
2022-10-27T01:43:44.623Z,20.30
2022-10-27T01:44:44.619Z,24.30
2022-10-27T01:45:44.620Z,24.20
2022-10-27T01:46:44.604Z,28.40
2022-10-27T01:47:44.593Z,22.90
2022-10-27T01:48:44.582Z,26.40
2022-10-27T01:49:44.580Z,27.30
2022-10-27T01:51:00.520Z,21.20
2022-10-27T01:51:44.567Z,25.70
2022-10-27T01:52:44.577Z,27.50
2022-10-27T01:53:44.550Z,23.00
2022-10-27T01:54:44.541Z,20.10
2022-10-27T01:55:44.540Z,17.40
2022-10-27T01:56:44.524Z,20.10
2022-10-27T01:57:44.521Z,17.60
2022-10-27T01:58:44.508Z,16.60
2022-10-27T01:59:44.501Z,19.00
2022-10-27T02:00:44.534Z,21.70
2022-10-27T02:01:44.487Z,23.70
2022-10-27T02:02:44.476Z,19.50
2022-10-27T02:03:44.470Z,24.30
2022-10-27T02:04:44.474Z,23.10
2022-10-27T02:05:44.456Z,19.60
2022-10-27T02:06:44.456Z,24.20
2022-10-27T02:07:44.439Z,25.70
2022-10-27T02:08:44.432Z,22.80
2022-10-27T02:09:44.423Z,22.40
2022-10-27T02:10:44.419Z,25.40
2022-10-27T02:11:44.431Z,24.70
2022-10-27T02:12:44.401Z,31.20
2022-10-27T02:13:44.412Z,27.90
2022-10-27T02:14:44.390Z,28.80
2022-10-27T02:15:44.374Z,21.90
2022-10-27T02:16:44.372Z,20.90
2022-10-27T02:17:44.363Z,20.90
2022-10-27T02:18:44.369Z,22.20
2022-10-27T02:19:44.351Z,26.80
2022-10-27T02:20:44.341Z,28.60
2022-10-27T02:21:44.336Z,24.50
2022-10-27T02:22:46.211Z,24.50
2022-10-27T02:23:44.318Z,29.50
2022-10-27T02:24:44.311Z,29.90
2022-10-27T02:25:44.315Z,21.00
2022-10-27T02:26:44.295Z,18.60
2022-10-27T02:27:44.287Z,18.10
2022-10-27T02:28:44.280Z,23.30
2022-10-27T02:29:44.271Z,22.60
2022-10-27T02:30:44.275Z,19.80
2022-10-27T02:31:44.258Z,22.80
2022-10-27T02:32:44.270Z,21.60
2022-10-27T02:33:44.241Z,22.30
2022-10-27T02:34:44.234Z,22.70
2022-10-27T02:35:46.395Z,25.20
2022-10-27T02:36:44.214Z,22.60
2022-10-27T02:37:44.213Z,24.30
2022-10-27T02:38:44.203Z,19.90
2022-10-27T02:39:44.201Z,22.00
2022-10-27T02:40:44.189Z,25.10
2022-10-27T02:41:44.180Z,28.80
2022-10-27T02:42:44.178Z,30.70
2022-10-27T02:43:44.159Z,26.90
2022-10-27T02:44:44.157Z,30.20
2022-10-27T02:45:44.151Z,28.20
2022-10-27T02:46:45.473Z,31.00
2022-10-27T02:47:44.134Z,28.50
2022-10-27T02:48:44.126Z,30.60
2022-10-27T02:49:44.120Z,29.10
2022-10-27T02:50:44.114Z,34.60
2022-10-27T02:51:44.101Z,29.60
2022-10-27T02:52:44.095Z,29.70
2022-10-27T02:53:44.097Z,27.10
2022-10-27T02:54:44.081Z,20.90
2022-10-27T02:55:44.071Z,23.60
2022-10-27T02:56:44.064Z,19.50
2022-10-27T02:57:44.052Z,21.20
2022-10-27T02:58:44.051Z,24.20
2022-10-27T02:59:44.164Z,26.90
2022-10-27T03:00:44.081Z,24.10
2022-10-27T03:01:44.101Z,23.80
2022-10-27T03:02:44.022Z,23.60
2022-10-27T03:03:44.011Z,25.30
2022-10-27T03:04:43.997Z,28.50
2022-10-27T03:05:45.573Z,23.90
2022-10-27T03:06:43.987Z,22.20
2022-10-27T03:07:43.979Z,21.90
2022-10-27T03:08:43.973Z,19.70
2022-10-27T03:09:43.964Z,21.20
2022-10-27T03:10:43.956Z,21.00
2022-10-27T03:11:46.169Z,21.20
2022-10-27T03:12:43.939Z,21.30
2022-10-27T03:13:43.927Z,18.70
2022-10-27T03:14:43.943Z,26.90
2022-10-27T03:15:43.916Z,28.00
2022-10-27T03:16:43.907Z,22.90
2022-10-27T03:17:43.903Z,26.50
2022-10-27T03:18:43.897Z,21.30
2022-10-27T03:19:43.887Z,23.80
2022-10-27T03:20:43.874Z,26.80
2022-10-27T03:21:43.874Z,26.00
2022-10-27T03:22:43.862Z,23.00
2022-10-27T03:23:43.853Z,23.90
2022-10-27T03:24:43.846Z,23.30
2022-10-27T03:25:47.380Z,22.90
2022-10-27T03:26:43.843Z,23.50
2022-10-27T03:27:43.830Z,28.50
2022-10-27T03:28:43.824Z,19.90
2022-10-27T03:29:43.874Z,20.10
2022-10-27T03:30:43.823Z,20.30
2022-10-27T03:31:43.801Z,31.80
2022-10-27T03:32:43.784Z,21.50
2022-10-27T03:33:43.777Z,29.50
2022-10-27T03:34:43.769Z,21.90
2022-10-27T03:35:43.758Z,22.80
2022-10-27T03:36:43.810Z,20.70
2022-10-27T03:37:43.741Z,19.80
2022-10-27T03:38:43.743Z,19.20
2022-10-27T03:39:43.745Z,17.50
2022-10-27T03:40:43.719Z,19.10
2022-10-27T03:41:43.729Z,18.40
2022-10-27T03:42:43.704Z,20.50
2022-10-27T03:43:43.704Z,18.70
2022-10-27T03:44:43.687Z,20.90
2022-10-27T03:45:43.681Z,21.30
2022-10-27T03:46:43.672Z,21.50
2022-10-27T03:47:43.658Z,21.70
2022-10-27T03:48:43.664Z,22.50
2022-10-27T03:49:43.647Z,21.50
2022-10-27T03:50:43.640Z,19.90
2022-10-27T03:51:43.632Z,25.50
2022-10-27T03:52:43.623Z,22.00
2022-10-27T03:53:43.616Z,24.30
2022-10-27T03:54:43.613Z,32.90
2022-10-27T03:55:43.600Z,23.30
2022-10-27T03:56:43.589Z,20.50
2022-10-27T03:57:43.584Z,24.80
2022-10-27T03:58:43.579Z,20.60
2022-10-27T03:59:43.564Z,18.00
2022-10-27T04:00:43.608Z,28.40
2022-10-27T04:01:43.659Z,20.30
2022-10-27T04:02:43.543Z,19.90
2022-10-27T04:03:43.534Z,21.90
2022-10-27T04:04:43.528Z,19.80
2022-10-27T04:05:43.520Z,20.80
2022-10-27T04:06:43.506Z,20.30
2022-10-27T04:07:47.133Z,20.30
2022-10-27T04:08:43.494Z,19.90
2022-10-27T04:09:43.487Z,22.50
2022-10-27T04:10:43.484Z,22.00
2022-10-27T04:11:43.472Z,20.60
2022-10-27T04:12:43.466Z,29.40
2022-10-27T04:13:43.453Z,39.50
2022-10-27T04:14:43.447Z,49.20
2022-10-27T04:15:43.458Z,35.40
2022-10-27T04:16:43.431Z,22.80
2022-10-27T04:17:43.431Z,21.40
2022-10-27T04:18:43.497Z,19.10
2022-10-27T04:19:43.414Z,21.60
2022-10-27T04:20:43.396Z,21.70
2022-10-27T04:21:43.391Z,20.70
2022-10-27T04:22:43.386Z,19.50
2022-10-27T04:23:43.370Z,18.60
2022-10-27T04:24:43.367Z,18.00
2022-10-27T04:25:43.357Z,19.00
2022-10-27T04:26:43.350Z,19.70
2022-10-27T04:27:43.341Z,18.30
2022-10-27T04:28:43.335Z,20.70
2022-10-27T04:29:43.345Z,20.70
2022-10-27T04:30:43.318Z,24.30
2022-10-27T04:31:43.310Z,27.10
2022-10-27T04:32:43.306Z,25.70
2022-10-27T04:33:43.291Z,21.10
2022-10-27T04:34:43.281Z,23.40
2022-10-27T04:35:43.275Z,22.80
2022-10-27T04:36:43.269Z,21.90
2022-10-27T04:37:43.263Z,22.60
2022-10-27T04:38:43.253Z,22.70
2022-10-27T04:39:43.247Z,27.50
2022-10-27T04:40:43.233Z,29.80
2022-10-27T04:41:43.246Z,21.60
2022-10-27T04:42:43.222Z,20.80
2022-10-27T04:43:43.257Z,22.70
2022-10-27T04:44:43.209Z,24.00
2022-10-27T04:45:43.197Z,24.60
2022-10-27T04:46:43.195Z,23.80
2022-10-27T04:47:43.179Z,22.20
2022-10-27T04:48:43.172Z,23.20
2022-10-27T04:49:43.178Z,23.70
2022-10-27T04:50:43.155Z,29.30
2022-10-27T04:51:43.147Z,24.30
2022-10-27T04:52:44.466Z,23.40
2022-10-27T04:53:43.127Z,24.70
2022-10-27T04:54:43.121Z,22.10
2022-10-27T04:55:43.112Z,21.70
2022-10-27T04:56:43.114Z,23.30
2022-10-27T04:57:43.098Z,22.80
2022-10-27T04:58:43.089Z,29.40
2022-10-27T04:59:43.087Z,33.50
2022-10-27T05:00:43.067Z,32.60
2022-10-27T05:01:43.110Z,29.90
2022-10-27T05:02:43.102Z,30.20
2022-10-27T05:03:43.048Z,25.70
2022-10-27T05:04:43.041Z,37.80
2022-10-27T05:05:43.034Z,30.00
2022-10-27T05:06:43.030Z,33.90
2022-10-27T05:07:43.013Z,26.80
2022-10-27T05:08:43.066Z,35.10
2022-10-27T05:09:43.008Z,31.00
2022-10-27T05:10:42.993Z,30.10
2022-10-27T05:11:42.989Z,34.30
2022-10-27T05:12:42.976Z,31.40
2022-10-27T05:13:42.974Z,33.90
2022-10-27T05:14:42.956Z,33.70
2022-10-27T05:15:42.950Z,53.80
2022-10-27T05:16:42.957Z,36.80
2022-10-27T05:17:42.935Z,43.10
2022-10-27T05:18:42.924Z,43.70
2022-10-27T05:19:42.919Z,42.10
2022-10-27T05:20:42.910Z,34.20
2022-10-27T05:21:42.901Z,34.00
2022-10-27T05:22:42.896Z,41.90
2022-10-27T05:23:45.322Z,45.70
2022-10-27T05:24:42.877Z,56.60
2022-10-27T05:26:42.861Z,35.60
2022-10-27T05:27:42.850Z,27.20
2022-10-27T05:28:42.844Z,32.60
2022-10-27T05:29:42.842Z,31.30
2022-10-27T05:30:42.828Z,28.60
2022-10-27T05:31:42.822Z,28.20
2022-10-27T05:32:44.915Z,37.00
2022-10-27T05:33:42.818Z,37.00
2022-10-27T05:34:42.793Z,39.20
2022-10-27T05:35:42.788Z,31.00
2022-10-27T05:36:43.902Z,32.60
2022-10-27T05:37:42.772Z,30.90
2022-10-27T05:38:42.770Z,38.40
2022-10-27T05:39:42.752Z,34.80
2022-10-27T05:40:42.754Z,45.40
2022-10-27T05:41:42.738Z,34.90
2022-10-27T05:42:42.733Z,46.60
2022-10-27T05:43:42.824Z,53.40
2022-10-27T05:44:42.713Z,34.00
2022-10-27T05:45:42.707Z,48.00
2022-10-27T05:46:42.700Z,48.20
2022-10-27T05:47:42.684Z,51.10
2022-10-27T05:48:42.685Z,37.60
2022-10-27T05:49:42.669Z,43.10
2022-10-27T05:51:42.659Z,49.70
2022-10-27T05:52:42.650Z,58.70
2022-10-27T05:53:42.643Z,42.80
2022-10-27T05:54:42.629Z,52.40
2022-10-27T05:55:42.626Z,55.70
2022-10-27T05:56:42.614Z,44.50
2022-10-27T05:57:42.608Z,49.10
2022-10-27T05:58:42.603Z,53.10
2022-10-27T05:59:42.593Z,41.00
2022-10-27T06:00:42.596Z,43.90
2022-10-27T06:01:42.705Z,38.90
2022-10-27T06:02:42.568Z,42.60
2022-10-27T06:03:42.563Z,52.00
2022-10-27T06:04:42.564Z,41.00
2022-10-27T06:05:42.550Z,36.10
2022-10-27T06:06:42.537Z,44.70
2022-10-27T06:07:42.520Z,41.00
2022-10-27T06:08:42.516Z,44.50
2022-10-27T06:09:42.512Z,56.70
2022-10-27T06:10:42.508Z,45.70
2022-10-27T06:11:42.493Z,45.30
2022-10-27T06:12:42.487Z,44.30
2022-10-27T06:13:42.490Z,45.80
2022-10-27T06:14:42.496Z,38.40
2022-10-27T06:16:42.454Z,46.90
2022-10-27T06:17:42.448Z,44.00
2022-10-27T06:18:42.464Z,43.50
2022-10-27T06:19:42.430Z,52.10
2022-10-27T06:20:42.421Z,43.80
2022-10-27T06:21:42.412Z,44.30
2022-10-27T06:22:42.406Z,42.50
2022-10-27T06:23:42.397Z,41.70
2022-10-27T06:24:42.389Z,39.10
2022-10-27T06:25:42.383Z,44.50
2022-10-27T06:26:42.374Z,39.70
2022-10-27T06:27:42.361Z,42.40
2022-10-27T06:28:42.352Z,40.20
2022-10-27T06:29:42.349Z,47.50
2022-10-27T06:30:42.350Z,47.70
2022-10-27T06:31:42.333Z,50.10
2022-10-27T06:32:42.324Z,46.10
2022-10-27T06:33:42.317Z,53.40
2022-10-27T06:34:42.314Z,54.40
2022-10-27T06:35:42.297Z,57.80
2022-10-27T06:36:42.293Z,56.30
2022-10-27T06:37:42.287Z,42.90
2022-10-27T06:38:44.421Z,38.50
2022-10-27T06:39:42.274Z,36.50
2022-10-27T06:40:42.264Z,42.10
2022-10-27T06:41:42.352Z,41.20
2022-10-27T06:42:55.312Z,38.10
2022-10-27T06:43:42.239Z,41.20
2022-10-27T06:44:42.232Z,40.10
2022-10-27T06:45:42.222Z,36.30
2022-10-27T06:46:42.221Z,40.30
2022-10-27T06:47:42.209Z,38.80
2022-10-27T06:48:42.205Z,38.20
2022-10-27T06:49:42.190Z,44.50
2022-10-27T06:50:42.194Z,45.00
2022-10-27T06:51:42.168Z,38.90
2022-10-27T06:52:42.169Z,43.10
2022-10-27T06:53:42.168Z,44.30
2022-10-27T06:54:42.154Z,43.10
2022-10-27T06:55:42.145Z,43.60
2022-10-27T06:56:42.137Z,43.40
2022-10-27T06:57:42.136Z,40.10
2022-10-27T06:58:42.129Z,40.70
2022-10-27T06:59:42.113Z,33.50
2022-10-27T07:00:42.111Z,36.70
2022-10-27T07:01:42.158Z,42.60
2022-10-27T07:02:42.098Z,41.50
2022-10-27T07:03:42.081Z,36.70
2022-10-27T07:04:42.076Z,33.90
2022-10-27T07:05:42.077Z,36.50
2022-10-27T07:06:42.063Z,36.60
2022-10-27T07:07:42.070Z,34.20
2022-10-27T07:08:42.132Z,38.10
2022-10-27T07:09:42.042Z,36.00
2022-10-27T07:10:42.033Z,38.10
2022-10-27T07:11:42.043Z,37.30
2022-10-27T07:12:42.018Z,36.60
2022-10-27T07:13:42.010Z,40.40
2022-10-27T07:14:42.009Z,35.60
2022-10-27T07:15:41.998Z,36.00
2022-10-27T07:16:41.994Z,34.00
2022-10-27T07:17:41.977Z,35.90
2022-10-27T07:18:41.976Z,36.30
2022-10-27T07:19:41.970Z,31.70
2022-10-27T07:20:41.960Z,31.20
2022-10-27T07:21:41.956Z,31.20
2022-10-27T07:22:41.946Z,30.50
2022-10-27T07:23:41.941Z,30.20
2022-10-27T07:24:41.927Z,27.40
2022-10-27T07:25:41.971Z,29.40
2022-10-27T07:26:41.912Z,29.20
2022-10-27T07:27:41.910Z,24.60
2022-10-27T07:28:41.902Z,24.80
2022-10-27T07:29:41.896Z,27.00
2022-10-27T07:30:41.889Z,25.60
2022-10-27T07:31:41.881Z,25.10
2022-10-27T07:32:41.875Z,24.40
2022-10-27T07:33:41.869Z,23.60
2022-10-27T07:34:41.871Z,23.20
2022-10-27T07:35:41.854Z,26.40
2022-10-27T07:36:41.865Z,25.50
2022-10-27T07:37:41.840Z,24.10
2022-10-27T07:38:41.860Z,23.10
2022-10-27T07:39:41.823Z,20.00
2022-10-27T07:40:41.819Z,19.30
2022-10-27T07:41:41.818Z,23.20
2022-10-27T07:42:41.808Z,20.50
2022-10-27T07:43:41.803Z,22.80
2022-10-27T07:44:41.796Z,18.70
2022-10-27T07:45:41.790Z,23.20
2022-10-27T07:46:41.819Z,20.60
2022-10-27T07:47:41.774Z,24.10
2022-10-27T07:48:41.763Z,21.10
2022-10-27T07:49:41.777Z,18.70
2022-10-27T07:50:41.795Z,22.60
2022-10-27T07:51:41.747Z,17.60
2022-10-27T07:52:41.740Z,20.70
2022-10-27T07:53:41.735Z,19.90
2022-10-27T07:54:41.726Z,21.10
2022-10-27T07:55:41.721Z,18.10
2022-10-27T07:56:41.745Z,19.10
2022-10-27T07:57:41.708Z,19.10
2022-10-27T07:58:41.703Z,15.00
2022-10-27T07:59:41.696Z,14.60
2022-10-27T08:00:41.689Z,18.10
2022-10-27T08:01:41.812Z,17.10
2022-10-27T08:02:41.676Z,14.90
2022-10-27T08:03:42.340Z,16.00
2022-10-27T08:04:41.672Z,20.20
2022-10-27T08:05:41.657Z,17.00
2022-10-27T08:06:41.666Z,17.90
2022-10-27T08:07:41.649Z,15.70
2022-10-27T08:08:41.642Z,18.70
2022-10-27T08:09:41.630Z,16.20
2022-10-27T08:10:41.626Z,16.10
2022-10-27T08:11:41.617Z,16.00
2022-10-27T08:12:41.623Z,18.20
2022-10-27T08:13:41.610Z,14.20
2022-10-27T08:14:41.607Z,15.70
2022-10-27T08:15:41.679Z,15.20
2022-10-27T08:16:41.653Z,17.30
2022-10-27T08:17:41.582Z,13.50
2022-10-27T08:18:41.581Z,17.10
2022-10-27T08:19:41.570Z,14.10
2022-10-27T08:20:41.574Z,14.40
2022-10-27T08:21:41.562Z,18.40
2022-10-27T08:22:41.570Z,18.60
2022-10-27T08:23:41.551Z,15.40
2022-10-27T08:24:41.547Z,17.10
2022-10-27T08:25:41.536Z,20.20
2022-10-27T08:26:41.532Z,17.70
2022-10-27T08:27:41.523Z,16.90
2022-10-27T08:28:41.519Z,17.20
2022-10-27T08:29:41.515Z,16.40
2022-10-27T08:30:45.837Z,14.50
2022-10-27T08:31:41.503Z,17.90
2022-10-27T08:32:41.510Z,16.00
2022-10-27T08:33:41.488Z,15.40
2022-10-27T08:34:41.485Z,14.70
2022-10-27T08:35:41.480Z,15.30
2022-10-27T08:36:41.473Z,14.30
2022-10-27T08:37:41.469Z,15.00
2022-10-27T08:38:41.472Z,14.40
2022-10-27T08:39:41.456Z,13.90
2022-10-27T08:40:41.528Z,13.20
2022-10-27T08:41:41.442Z,17.20
2022-10-27T08:42:41.442Z,11.90
2022-10-27T08:43:41.446Z,15.00
2022-10-27T08:44:41.446Z,13.00
2022-10-27T08:45:41.434Z,13.50
2022-10-27T08:46:41.424Z,15.70
2022-10-27T08:47:41.411Z,12.30
2022-10-27T08:48:41.410Z,11.70
2022-10-27T08:49:43.465Z,15.10
2022-10-27T08:50:41.397Z,13.40
2022-10-27T08:51:41.392Z,14.30
2022-10-27T08:52:41.391Z,14.60
2022-10-27T08:53:41.382Z,14.90
2022-10-27T08:54:41.379Z,13.20
2022-10-27T08:55:41.368Z,12.60
2022-10-27T08:56:41.364Z,13.40
2022-10-27T08:57:41.353Z,12.10
2022-10-27T08:58:41.356Z,13.00
2022-10-27T08:59:44.188Z,11.00
2022-10-27T09:00:41.345Z,12.60
2022-10-27T09:01:41.473Z,13.70
2022-10-27T09:02:41.438Z,11.90
2022-10-27T09:03:41.328Z,11.80
2022-10-27T09:04:41.322Z,11.60
2022-10-27T09:05:41.316Z,11.20
2022-10-27T09:06:41.309Z,15.00
2022-10-27T09:07:41.306Z,11.50
2022-10-27T09:08:41.303Z,13.50
2022-10-27T09:09:41.385Z,13.80
2022-10-27T09:10:41.295Z,15.80
2022-10-27T09:11:41.293Z,12.30
2022-10-27T09:12:41.281Z,10.40
2022-10-27T09:13:41.280Z,13.30
2022-10-27T09:14:44.115Z,11.60
2022-10-27T09:15:41.270Z,12.20
2022-10-27T09:16:41.260Z,12.90
2022-10-27T09:17:41.266Z,10.10
2022-10-27T09:18:41.255Z,10.00
2022-10-27T09:19:41.246Z,11.20
2022-10-27T09:20:41.251Z,13.30
2022-10-27T09:21:42.130Z,9.60
2022-10-27T09:22:41.242Z,8.80
2022-10-27T09:23:41.223Z,8.50
2022-10-27T09:24:41.226Z,10.10
2022-10-27T09:25:41.253Z,10.30
2022-10-27T09:26:41.222Z,8.90
2022-10-27T09:27:41.210Z,8.10
2022-10-27T09:28:41.207Z,10.80
2022-10-27T09:29:41.198Z,7.20
2022-10-27T09:30:41.194Z,8.80
2022-10-27T09:31:41.182Z,8.50
2022-10-27T09:32:41.182Z,6.30
2022-10-27T09:33:41.179Z,8.80
2022-10-27T09:34:41.176Z,9.80
2022-10-27T09:35:41.170Z,10.70
2022-10-27T09:36:41.163Z,8.40
2022-10-27T09:37:41.164Z,8.40
2022-10-27T09:38:41.159Z,9.00
2022-10-27T09:39:41.156Z,9.70
2022-10-27T09:40:41.143Z,9.20
2022-10-27T09:41:41.141Z,9.50
2022-10-27T09:42:41.134Z,9.90
2022-10-27T09:43:41.138Z,10.40
2022-10-27T09:44:41.131Z,10.20
2022-10-27T09:45:41.124Z,9.40
2022-10-27T09:46:41.124Z,8.30
2022-10-27T09:47:41.117Z,9.60
2022-10-27T09:48:41.114Z,8.30
2022-10-27T09:49:41.101Z,8.70
2022-10-27T09:50:41.108Z,10.00
2022-10-27T09:51:41.098Z,9.10
2022-10-27T09:52:41.093Z,9.00
2022-10-27T09:53:41.090Z,10.70
2022-10-27T09:54:41.094Z,10.10
2022-10-27T09:55:41.099Z,7.70
2022-10-27T09:56:41.080Z,8.00
2022-10-27T09:57:41.078Z,7.80
2022-10-27T09:58:41.076Z,8.90
2022-10-27T09:59:41.063Z,8.70
2022-10-27T10:00:41.069Z,7.70
2022-10-27T10:01:41.127Z,9.20
2022-10-27T10:02:45.666Z,11.20
2022-10-27T10:03:41.051Z,7.90
2022-10-27T10:04:41.053Z,10.40
2022-10-27T10:05:41.038Z,9.10
2022-10-27T10:06:41.038Z,7.80
2022-10-27T10:07:41.025Z,7.70
2022-10-27T10:08:41.026Z,7.10
2022-10-27T10:09:41.032Z,7.80
2022-10-27T10:10:41.016Z,8.60
2022-10-27T10:11:41.030Z,5.60
2022-10-27T10:12:41.013Z,9.00
2022-10-27T10:13:41.012Z,8.70
2022-10-27T10:14:41.022Z,7.30
2022-10-27T10:15:40.999Z,6.70
2022-10-27T10:16:41.001Z,8.00
2022-10-27T10:17:40.989Z,9.50
2022-10-27T10:18:41.027Z,9.10
2022-10-27T10:19:40.984Z,8.90
2022-10-27T10:21:40.977Z,10.60
2022-10-27T10:22:43.131Z,8.40
2022-10-27T10:23:40.970Z,6.80
2022-10-27T10:24:40.968Z,7.10
2022-10-27T10:25:40.964Z,9.70
2022-10-27T10:26:40.955Z,10.00
2022-10-27T10:27:40.950Z,10.30
2022-10-27T10:28:40.953Z,9.50
2022-10-27T10:29:40.949Z,8.70
2022-10-27T10:30:40.952Z,9.30
2022-10-27T10:31:40.941Z,9.90
2022-10-27T10:32:40.947Z,6.60
2022-10-27T10:33:40.935Z,7.40
2022-10-27T10:34:40.933Z,8.70
2022-10-27T10:35:40.950Z,8.30
2022-10-27T10:36:40.921Z,9.00
2022-10-27T10:37:40.920Z,7.90
2022-10-27T10:38:40.916Z,8.20
2022-10-27T10:39:40.925Z,7.70
2022-10-27T10:40:40.921Z,7.70
2022-10-27T10:41:40.908Z,7.40
2022-10-27T10:42:40.910Z,6.70
2022-10-27T10:43:40.904Z,8.00
2022-10-27T10:44:40.901Z,8.60
2022-10-27T10:45:40.937Z,6.10
2022-10-27T10:46:40.890Z,8.70
2022-10-27T10:47:40.887Z,5.40
2022-10-27T10:48:40.889Z,8.30
2022-10-27T10:49:40.879Z,7.20
2022-10-27T10:50:40.890Z,7.30
2022-10-27T10:51:40.880Z,8.50
2022-10-27T10:52:40.880Z,6.60
2022-10-27T10:53:40.868Z,8.30
2022-10-27T10:54:40.868Z,7.10
2022-10-27T10:55:40.870Z,6.50
2022-10-27T10:56:40.854Z,5.70
2022-10-27T10:57:40.854Z,6.50
2022-10-27T10:58:40.853Z,8.80
2022-10-27T10:59:40.848Z,8.50
2022-10-27T11:00:40.895Z,6.10
2022-10-27T11:01:41.027Z,6.20
2022-10-27T11:02:40.843Z,6.30
2022-10-27T11:03:40.836Z,8.80
2022-10-27T11:04:40.833Z,6.90
2022-10-27T11:05:40.833Z,6.80
2022-10-27T11:06:40.831Z,5.80
2022-10-27T11:07:40.823Z,7.30
2022-10-27T11:08:42.338Z,5.20
2022-10-27T11:09:40.817Z,7.00
2022-10-27T11:10:40.832Z,7.40
2022-10-27T11:11:40.811Z,8.30
2022-10-27T11:12:40.820Z,8.10
2022-10-27T11:13:40.811Z,6.20
2022-10-27T11:14:40.803Z,7.80
2022-10-27T11:15:40.814Z,7.20
2022-10-27T11:16:40.792Z,7.60
2022-10-27T11:17:40.791Z,6.60
2022-10-27T11:18:40.791Z,7.20
2022-10-27T11:19:40.788Z,10.10
2022-10-27T11:20:40.793Z,8.00
2022-10-27T11:21:40.806Z,6.30
2022-10-27T11:22:40.818Z,6.10
2022-10-27T11:23:40.777Z,6.80
2022-10-27T11:24:40.773Z,8.30
2022-10-27T11:25:40.772Z,7.70
2022-10-27T11:26:40.765Z,7.30
2022-10-27T11:27:40.761Z,7.80
2022-10-27T11:28:40.761Z,6.20
2022-10-27T11:29:40.756Z,8.50
2022-10-27T11:30:40.761Z,6.20
2022-10-27T11:31:40.751Z,5.60
2022-10-27T11:32:40.750Z,5.80
2022-10-27T11:33:40.754Z,6.90
2022-10-27T11:34:40.745Z,5.50
2022-10-27T11:35:40.742Z,6.30
2022-10-27T11:36:40.745Z,7.20
2022-10-27T11:37:40.731Z,6.60
2022-10-27T11:38:40.734Z,6.60
2022-10-27T11:39:40.729Z,7.60
2022-10-27T11:40:40.728Z,5.60
2022-10-27T11:41:40.732Z,6.50
2022-10-27T11:42:40.723Z,5.50
2022-10-27T11:43:43.570Z,5.60
2022-10-27T11:44:40.716Z,4.90
2022-10-27T11:45:40.714Z,6.70
2022-10-27T11:46:40.769Z,6.10
2022-10-27T11:47:40.709Z,6.00
2022-10-27T11:48:40.703Z,4.40
2022-10-27T11:49:40.703Z,6.10
2022-10-27T11:50:40.701Z,6.10
2022-10-27T11:51:40.700Z,6.30
2022-10-27T11:52:40.697Z,8.30
2022-10-27T11:53:40.695Z,6.30
2022-10-27T11:54:40.702Z,8.30
2022-10-27T11:55:40.689Z,6.70
2022-10-27T11:56:40.685Z,5.70
2022-10-27T11:57:40.690Z,5.90
2022-10-27T11:58:40.676Z,6.90
2022-10-27T11:59:40.678Z,6.40
2022-10-27T12:00:40.676Z,7.40
2022-10-27T12:01:40.745Z,7.50
2022-10-27T12:02:40.704Z,4.70
2022-10-27T12:03:42.420Z,6.10
2022-10-27T12:04:40.665Z,5.70
2022-10-27T12:05:40.675Z,7.00
2022-10-27T12:06:40.662Z,6.60
2022-10-27T12:07:40.655Z,5.70
2022-10-27T12:08:40.662Z,5.80
2022-10-27T12:09:40.649Z,5.50
2022-10-27T12:10:40.749Z,5.60
2022-10-27T12:11:40.679Z,6.70
2022-10-27T12:12:40.650Z,7.40
2022-10-27T12:13:40.695Z,5.60
2022-10-27T12:14:40.639Z,6.50
2022-10-27T12:15:40.643Z,3.40
2022-10-27T12:16:40.635Z,6.30
2022-10-27T12:17:40.634Z,6.40
2022-10-27T12:18:40.637Z,7.30
2022-10-27T12:19:40.640Z,5.30
2022-10-27T12:20:40.621Z,6.60
2022-10-27T12:21:40.624Z,6.30
2022-10-27T12:22:40.647Z,5.60
2022-10-27T12:23:40.618Z,5.30
2022-10-27T12:24:40.615Z,5.40
2022-10-27T12:25:40.613Z,4.90
2022-10-27T12:26:40.616Z,6.80
2022-10-27T12:27:40.607Z,5.90
2022-10-27T12:28:40.606Z,5.10
2022-10-27T12:29:40.606Z,3.90
2022-10-27T12:30:40.598Z,6.40
2022-10-27T12:31:40.596Z,5.90
2022-10-27T12:32:40.597Z,3.90
2022-10-27T12:33:40.593Z,5.50
2022-10-27T12:34:40.602Z,4.70
2022-10-27T12:35:40.589Z,6.20
2022-10-27T12:36:40.586Z,4.30
2022-10-27T12:37:40.593Z,3.50
2022-10-27T12:38:40.581Z,6.40
2022-10-27T12:39:40.578Z,5.80
2022-10-27T12:40:40.582Z,4.40
2022-10-27T12:41:40.567Z,3.60
2022-10-27T12:42:40.579Z,4.70
2022-10-27T12:43:40.570Z,5.80
2022-10-27T12:44:40.562Z,4.70
2022-10-27T12:45:40.569Z,5.20
2022-10-27T12:46:40.561Z,6.50
2022-10-27T12:47:40.558Z,5.10
2022-10-27T12:48:40.562Z,7.40
2022-10-27T12:49:40.553Z,5.50
2022-10-27T12:50:40.552Z,6.20
2022-10-27T12:51:40.542Z,4.50
2022-10-27T12:52:40.541Z,6.30
2022-10-27T12:53:40.542Z,5.80
2022-10-27T12:54:40.617Z,4.80
2022-10-27T12:55:40.544Z,5.60
2022-10-27T12:56:40.543Z,4.10
2022-10-27T12:57:40.536Z,5.70
2022-10-27T12:58:40.533Z,3.50
2022-10-27T12:59:40.528Z,6.50
2022-10-27T13:00:40.527Z,5.20
2022-10-27T13:01:40.611Z,5.30
2022-10-27T13:02:40.649Z,5.60
2022-10-27T13:03:40.515Z,5.20